sensor_id;sensor_type;location;lat;lon;timestamp;pressure;altitude;pressure_sealevel;temperature;humidity
65175;BME280;51761;42.126;24.752;2022-09-12T00:02:00;99197.44;;;19.65;80.21
65175;BME280;51761;42.126;24.752;2022-09-12T00:04:26;99202.09;;;19.68;79.78
65175;BME280;51761;42.126;24.752;2022-09-12T00:06:52;99206.50;;;19.69;79.86
65175;BME280;51761;42.126;24.752;2022-09-12T00:09:18;99192.56;;;19.66;80.31
65175;BME280;51761;42.126;24.752;2022-09-12T00:11:45;99198.94;;;19.61;81.01
65175;BME280;51761;42.126;24.752;2022-09-12T00:14:13;99199.50;;;19.65;80.45
65175;BME280;51761;42.126;24.752;2022-09-12T00:16:39;99197.16;;;19.63;80.54
65175;BME280;51761;42.126;24.752;2022-09-12T00:19:05;99202.34;;;19.65;80.56
65175;BME280;51761;42.126;24.752;2022-09-12T00:21:33;99180.00;;;19.52;80.84
65175;BME280;51761;42.126;24.752;2022-09-12T00:23:59;99186.88;;;19.46;80.69
65175;BME280;51761;42.126;24.752;2022-09-12T00:26:25;99213.59;;;19.59;81.08
65175;BME280;51761;42.126;24.752;2022-09-12T00:29:18;99221.13;;;19.48;82.45
65175;BME280;51761;42.126;24.752;2022-09-12T00:31:44;99198.66;;;19.24;83.62
65175;BME280;51761;42.126;24.752;2022-09-12T00:34:10;99197.00;;;19.18;84.26
65175;BME280;51761;42.126;24.752;2022-09-12T00:36:37;99218.56;;;19.30;84.91
65175;BME280;51761;42.126;24.752;2022-09-12T00:39:03;99192.28;;;19.15;85.67
65175;BME280;51761;42.126;24.752;2022-09-12T00:41:35;99206.91;;;19.13;85.64
65175;BME280;51761;42.126;24.752;2022-09-12T00:44:40;99222.00;;;19.20;86.62
65175;BME280;51761;42.126;24.752;2022-09-12T00:46:54;99224.88;;;19.11;88.92
65175;BME280;51761;42.126;24.752;2022-09-12T00:52:09;99204.72;;;19.03;88.98
65175;BME280;51761;42.126;24.752;2022-09-12T00:54:43;99215.63;;;19.10;90.39
65175;BME280;51761;42.126;24.752;2022-09-12T00:57:12;99197.50;;;19.02;89.48
65175;BME280;51761;42.126;24.752;2022-09-12T00:59:42;99121.91;;;18.59;90.00
65175;BME280;51761;42.126;24.752;2022-09-12T01:02:10;99200.81;;;19.01;88.94
65175;BME280;51761;42.126;24.752;2022-09-12T01:04:37;99202.88;;;19.00;89.18
65175;BME280;51761;42.126;24.752;2022-09-12T01:07:05;99192.78;;;18.99;88.85
65175;BME280;51761;42.126;24.752;2022-09-12T01:09:32;99172.63;;;18.77;88.87
65175;BME280;51761;42.126;24.752;2022-09-12T01:11:57;99172.53;;;18.72;88.78
65175;BME280;51761;42.126;24.752;2022-09-12T01:14:25;99168.53;;;18.64;87.90
65175;BME280;51761;42.126;24.752;2022-09-12T01:16:51;99197.13;;;18.80;88.54
65175;BME280;51761;42.126;24.752;2022-09-12T01:40:48;99173.00;;;18.85;86.75
65175;BME280;51761;42.126;24.752;2022-09-12T01:43:31;99190.38;;;18.92;86.49
65175;BME280;51761;42.126;24.752;2022-09-12T01:48:45;99153.97;;;18.85;83.98
65175;BME280;51761;42.126;24.752;2022-09-12T01:51:22;99177.97;;;19.04;84.41
65175;BME280;51761;42.126;24.752;2022-09-12T01:53:54;99170.47;;;19.01;84.40
65175;BME280;51761;42.126;24.752;2022-09-12T01:56:26;99179.31;;;19.09;83.94
65175;BME280;51761;42.126;24.752;2022-09-12T01:58:59;99175.50;;;19.12;82.40
65175;BME280;51761;42.126;24.752;2022-09-12T02:01:31;99170.94;;;19.00;82.56
65175;BME280;51761;42.126;24.752;2022-09-12T02:04:27;99179.91;;;18.98;82.56
65175;BME280;51761;42.126;24.752;2022-09-12T02:06:58;99180.31;;;18.91;82.50
65175;BME280;51761;42.126;24.752;2022-09-12T02:09:34;99171.63;;;18.95;82.42
65175;BME280;51761;42.126;24.752;2022-09-12T02:12:03;99150.00;;;18.77;82.04
65175;BME280;51761;42.126;24.752;2022-09-12T02:14:32;99181.28;;;18.88;82.27
65175;BME280;51761;42.126;24.752;2022-09-12T02:17:15;99164.81;;;18.87;81.09
65175;BME280;51761;42.126;24.752;2022-09-12T02:19:46;99173.78;;;18.85;80.50
65175;BME280;51761;42.126;24.752;2022-09-12T02:22:16;99179.56;;;18.91;80.63
65175;BME280;51761;42.126;24.752;2022-09-12T02:24:45;99151.16;;;18.71;80.10
65175;BME280;51761;42.126;24.752;2022-09-12T02:27:15;99183.66;;;18.90;79.42
65175;BME280;51761;42.126;24.752;2022-09-12T02:29:44;99176.16;;;18.87;80.11
65175;BME280;51761;42.126;24.752;2022-09-12T02:34:43;99145.69;;;18.67;79.80
65175;BME280;51761;42.126;24.752;2022-09-12T02:37:22;99177.69;;;18.88;78.52
65175;BME280;51761;42.126;24.752;2022-09-12T02:39:59;99175.25;;;18.81;78.97
65175;BME280;51761;42.126;24.752;2022-09-12T02:42:25;99184.25;;;18.79;78.45
65175;BME280;51761;42.126;24.752;2022-09-12T02:44:53;99176.81;;;18.82;78.08
65175;BME280;51761;42.126;24.752;2022-09-12T02:47:26;99177.31;;;18.80;78.42
65175;BME280;51761;42.126;24.752;2022-09-12T02:49:53;99173.50;;;18.83;77.84
65175;BME280;51761;42.126;24.752;2022-09-12T02:52:20;99092.69;;;18.33;77.29
65175;BME280;51761;42.126;24.752;2022-09-12T02:54:46;99174.56;;;18.86;77.72
65175;BME280;51761;42.126;24.752;2022-09-12T02:57:17;99174.94;;;18.93;77.01
65175;BME280;51761;42.126;24.752;2022-09-12T02:59:44;99173.97;;;18.96;77.50
65175;BME280;51761;42.126;24.752;2022-09-12T03:15:08;99132.75;;;18.75;75.03
65175;BME280;51761;42.126;24.752;2022-09-12T03:17:52;99162.75;;;18.87;74.63
65175;BME280;51761;42.126;24.752;2022-09-12T03:20:34;99172.53;;;18.86;74.74
65175;BME280;51761;42.126;24.752;2022-09-12T03:23:31;99168.13;;;18.85;75.51
65175;BME280;51761;42.126;24.752;2022-09-12T03:26:15;99172.13;;;18.79;75.68
65175;BME280;51761;42.126;24.752;2022-09-12T03:28:42;99165.41;;;18.76;75.52
65175;BME280;51761;42.126;24.752;2022-09-12T03:31:13;99172.13;;;18.79;74.71
65175;BME280;51761;42.126;24.752;2022-09-12T03:33:39;99174.28;;;18.69;75.20
65175;BME280;51761;42.126;24.752;2022-09-12T03:36:08;99169.69;;;18.72;74.81
65175;BME280;51761;42.126;24.752;2022-09-12T03:38:38;99165.50;;;18.67;74.95
65175;BME280;51761;42.126;24.752;2022-09-12T03:41:04;99156.44;;;18.63;74.77
65175;BME280;51761;42.126;24.752;2022-09-12T03:43:29;99154.88;;;18.48;74.60
65175;BME280;51761;42.126;24.752;2022-09-12T03:45:55;99179.06;;;18.63;74.68
65175;BME280;51761;42.126;24.752;2022-09-12T03:48:21;99177.09;;;18.69;74.49
65175;BME280;51761;42.126;24.752;2022-09-12T03:50:47;99188.13;;;18.67;74.26
65175;BME280;51761;42.126;24.752;2022-09-12T03:53:12;99177.72;;;18.59;74.01
65175;BME280;51761;42.126;24.752;2022-09-12T03:55:38;99167.06;;;18.54;73.81
65175;BME280;51761;42.126;24.752;2022-09-12T03:58:03;99185.41;;;18.73;73.21
65175;BME280;51761;42.126;24.752;2022-09-12T04:00:29;99181.19;;;18.68;73.22
65175;BME280;51761;42.126;24.752;2022-09-12T04:02:55;99152.84;;;18.48;72.95
65175;BME280;51761;42.126;24.752;2022-09-12T04:05:22;99180.34;;;18.62;73.55
65175;BME280;51761;42.126;24.752;2022-09-12T04:07:49;99161.13;;;18.52;72.79
65175;BME280;51761;42.126;24.752;2022-09-12T04:10:14;99163.25;;;18.42;73.01
65175;BME280;51761;42.126;24.752;2022-09-12T04:12:39;99161.63;;;18.50;73.01
65175;BME280;51761;42.126;24.752;2022-09-12T04:15:06;99176.72;;;18.47;72.81
65175;BME280;51761;42.126;24.752;2022-09-12T04:17:33;99169.22;;;18.44;73.03
65175;BME280;51761;42.126;24.752;2022-09-12T04:19:59;99171.16;;;18.38;73.06
65175;BME280;51761;42.126;24.752;2022-09-12T04:22:25;99195.75;;;18.61;72.82
65175;BME280;51761;42.126;24.752;2022-09-12T04:24:51;99204.44;;;18.58;72.74
65175;BME280;51761;42.126;24.752;2022-09-12T04:27:16;99208.72;;;18.53;73.12
65175;BME280;51761;42.126;24.752;2022-09-12T04:29:42;99215.75;;;18.58;73.00
65175;BME280;51761;42.126;24.752;2022-09-12T04:32:07;99222.00;;;18.62;73.29
65175;BME280;51761;42.126;24.752;2022-09-12T04:34:33;99219.63;;;18.60;73.08
65175;BME280;51761;42.126;24.752;2022-09-12T04:36:58;99194.97;;;18.46;72.96
65175;BME280;51761;42.126;24.752;2022-09-12T04:39:24;99213.69;;;18.58;72.97
65175;BME280;51761;42.126;24.752;2022-09-12T04:41:49;99226.09;;;18.61;72.54
65175;BME280;51761;42.126;24.752;2022-09-12T04:44:16;99223.72;;;18.59;72.16
65175;BME280;51761;42.126;24.752;2022-09-12T04:46:44;99218.47;;;18.67;71.79
65175;BME280;51761;42.126;24.752;2022-09-12T04:49:12;99230.56;;;18.67;71.88
65175;BME280;51761;42.126;24.752;2022-09-12T04:51:40;99235.25;;;18.70;71.70
65175;BME280;51761;42.126;24.752;2022-09-12T04:54:16;99179.84;;;18.35;71.72
65175;BME280;51761;42.126;24.752;2022-09-12T04:56:45;99245.59;;;18.73;71.30
65175;BME280;51761;42.126;24.752;2022-09-12T04:59:12;99231.94;;;18.72;70.59
65175;BME280;51761;42.126;24.752;2022-09-12T05:01:39;99241.13;;;18.81;70.90
65175;BME280;51761;42.126;24.752;2022-09-12T05:04:04;99239.94;;;18.88;70.68
65175;BME280;51761;42.126;24.752;2022-09-12T05:06:33;99223.25;;;18.90;69.38
65175;BME280;51761;42.126;24.752;2022-09-12T05:08:59;99222.06;;;18.96;69.78
65175;BME280;51761;42.126;24.752;2022-09-12T05:11:31;99244.84;;;19.16;68.45
65175;BME280;51761;42.126;24.752;2022-09-12T05:13:57;99251.28;;;19.31;68.02
65175;BME280;51761;42.126;24.752;2022-09-12T05:16:24;99228.22;;;19.23;67.45
65175;BME280;51761;42.126;24.752;2022-09-12T05:18:50;99233.06;;;19.37;67.22
65175;BME280;51761;42.126;24.752;2022-09-12T05:21:18;99264.09;;;19.61;66.51
65175;BME280;51761;42.126;24.752;2022-09-12T05:23:44;99266.78;;;19.70;65.63
65175;BME280;51761;42.126;24.752;2022-09-12T05:26:12;99270.16;;;19.88;65.23
65175;BME280;51761;42.126;24.752;2022-09-12T05:28:39;99272.06;;;19.97;65.80
65175;BME280;51761;42.126;24.752;2022-09-12T05:31:24;99261.47;;;20.12;64.70
65175;BME280;51761;42.126;24.752;2022-09-12T05:33:52;99270.91;;;20.23;64.68
65175;BME280;51761;42.126;24.752;2022-09-12T05:36:24;99257.59;;;20.29;64.47
65175;BME280;51761;42.126;24.752;2022-09-12T05:38:50;99269.53;;;20.59;64.26
65175;BME280;51761;42.126;24.752;2022-09-12T05:41:18;99265.09;;;20.78;62.80
65175;BME280;51761;42.126;24.752;2022-09-12T05:43:45;99261.31;;;21.11;62.19
65175;BME280;51761;42.126;24.752;2022-09-12T05:46:16;99242.38;;;21.65;60.32
65175;BME280;51761;42.126;24.752;2022-09-12T05:48:44;99265.97;;;22.87;56.24
65175;BME280;51761;42.126;24.752;2022-09-12T05:51:16;99257.66;;;24.16;52.72
65175;BME280;51761;42.126;24.752;2022-09-12T05:53:44;99244.47;;;25.10;50.54
65175;BME280;51761;42.126;24.752;2022-09-12T05:56:12;99255.63;;;26.01;47.68
65175;BME280;51761;42.126;24.752;2022-09-12T05:58:40;99264.44;;;26.70;45.51
65175;BME280;51761;42.126;24.752;2022-09-12T06:01:08;99237.84;;;26.88;44.33
65175;BME280;51761;42.126;24.752;2022-09-12T06:03:38;99261.09;;;26.84;44.17
65175;BME280;51761;42.126;24.752;2022-09-12T06:06:05;99253.66;;;26.94;43.49
65175;BME280;51761;42.126;24.752;2022-09-12T06:08:34;99251.81;;;27.91;41.42
65175;BME280;51761;42.126;24.752;2022-09-12T06:11:05;99262.31;;;28.01;41.91
65175;BME280;51761;42.126;24.752;2022-09-12T06:13:32;99255.28;;;28.15;40.59
65175;BME280;51761;42.126;24.752;2022-09-12T06:16:10;99234.94;;;28.52;39.63
65175;BME280;51761;42.126;24.752;2022-09-12T06:18:37;99255.22;;;28.80;39.51
65175;BME280;51761;42.126;24.752;2022-09-12T06:21:08;99255.72;;;29.05;38.49
65175;BME280;51761;42.126;24.752;2022-09-12T06:23:34;99253.41;;;29.03;37.89
65175;BME280;51761;42.126;24.752;2022-09-12T06:26:00;99237.53;;;28.89;38.06
65175;BME280;51761;42.126;24.752;2022-09-12T06:28:26;99252.59;;;28.69;38.25
65175;BME280;51761;42.126;24.752;2022-09-12T06:30:52;99247.94;;;28.79;38.31
65175;BME280;51761;42.126;24.752;2022-09-12T06:33:18;99228.41;;;28.13;38.87
65175;BME280;51761;42.126;24.752;2022-09-12T06:35:44;99259.91;;;28.57;38.81
65175;BME280;51761;42.126;24.752;2022-09-12T06:38:09;99224.56;;;28.49;38.49
65175;BME280;51761;42.126;24.752;2022-09-12T06:40:44;99221.38;;;28.86;37.90
65175;BME280;51761;42.126;24.752;2022-09-12T06:43:13;99252.47;;;29.21;37.38
65175;BME280;51761;42.126;24.752;2022-09-12T06:45:39;99237.91;;;28.21;38.38
65175;BME280;51761;42.126;24.752;2022-09-12T06:48:04;99218.59;;;28.34;38.33
65175;BME280;51761;42.126;24.752;2022-09-12T06:50:30;99261.69;;;28.34;38.95
65175;BME280;51761;42.126;24.752;2022-09-12T06:52:55;99226.13;;;28.37;38.42
65175;BME280;51761;42.126;24.752;2022-09-12T06:55:21;99241.97;;;28.77;38.37
65175;BME280;51761;42.126;24.752;2022-09-12T06:57:49;99254.16;;;29.17;37.64
65175;BME280;51761;42.126;24.752;2022-09-12T07:00:14;99230.53;;;28.98;37.70
65175;BME280;51761;42.126;24.752;2022-09-12T07:02:40;99229.97;;;28.40;38.57
65175;BME280;51761;42.126;24.752;2022-09-12T07:05:06;99223.69;;;28.15;39.18
65175;BME280;51761;42.126;24.752;2022-09-12T07:07:32;99247.22;;;28.53;38.72
65175;BME280;51761;42.126;24.752;2022-09-12T07:10:26;99254.59;;;27.96;40.02
65175;BME280;51761;42.126;24.752;2022-09-12T07:12:52;99222.34;;;28.16;39.09
65175;BME280;51761;42.126;24.752;2022-09-12T07:15:17;99226.97;;;27.80;39.65
65175;BME280;51761;42.126;24.752;2022-09-12T07:17:43;99240.03;;;28.07;39.92
65175;BME280;51761;42.126;24.752;2022-09-12T07:20:08;99249.19;;;28.58;39.62
65175;BME280;51761;42.126;24.752;2022-09-12T07:22:34;99245.66;;;29.32;38.01
65175;BME280;51761;42.126;24.752;2022-09-12T07:24:59;99246.31;;;29.38;38.56
65175;BME280;51761;42.126;24.752;2022-09-12T07:27:25;99220.59;;;29.19;37.94
65175;BME280;51761;42.126;24.752;2022-09-12T07:29:50;99249.06;;;29.84;37.25
65175;BME280;51761;42.126;24.752;2022-09-12T07:32:16;99223.00;;;29.69;35.90
65175;BME280;51761;42.126;24.752;2022-09-12T07:34:41;99252.75;;;29.31;35.74
65175;BME280;51761;42.126;24.752;2022-09-12T07:37:07;99248.97;;;29.36;35.88
65175;BME280;51761;42.126;24.752;2022-09-12T07:39:32;99256.63;;;29.33;36.05
65175;BME280;51761;42.126;24.752;2022-09-12T07:41:58;99239.59;;;29.55;36.65
65175;BME280;51761;42.126;24.752;2022-09-12T07:44:24;99251.41;;;29.32;35.91
65175;BME280;51761;42.126;24.752;2022-09-12T07:46:51;99221.59;;;28.88;35.86
65175;BME280;51761;42.126;24.752;2022-09-12T07:49:16;99245.69;;;28.98;36.54
65175;BME280;51761;42.126;24.752;2022-09-12T07:51:42;99243.38;;;29.50;35.98
65175;BME280;51761;42.126;24.752;2022-09-12T07:54:08;99239.63;;;29.83;35.21
65175;BME280;51761;42.126;24.752;2022-09-12T07:56:33;99234.44;;;30.02;34.21
65175;BME280;51761;42.126;24.752;2022-09-12T07:58:59;99219.84;;;29.80;35.09
65175;BME280;51761;42.126;24.752;2022-09-12T08:01:25;99237.63;;;29.99;35.42
65175;BME280;51761;42.126;24.752;2022-09-12T08:03:56;99206.31;;;30.16;34.46
65175;BME280;51761;42.126;24.752;2022-09-12T08:06:23;99240.88;;;30.16;34.24
65175;BME280;51761;42.126;24.752;2022-09-12T08:08:49;99239.41;;;30.02;34.06
65175;BME280;51761;42.126;24.752;2022-09-12T08:11:17;99209.75;;;30.50;34.49
65175;BME280;51761;42.126;24.752;2022-09-12T08:13:44;99220.34;;;29.99;33.72
65175;BME280;51761;42.126;24.752;2022-09-12T08:16:15;99235.69;;;29.94;33.86
65175;BME280;51761;42.126;24.752;2022-09-12T08:18:42;99217.94;;;29.82;33.34
65175;BME280;51761;42.126;24.752;2022-09-12T08:21:14;99241.41;;;29.66;33.13
65175;BME280;51761;42.126;24.752;2022-09-12T08:23:55;99245.19;;;29.40;33.42
65175;BME280;51761;42.126;24.752;2022-09-12T08:26:21;99232.00;;;28.91;33.96
65175;BME280;51761;42.126;24.752;2022-09-12T08:28:48;99212.03;;;29.06;33.88
65175;BME280;51761;42.126;24.752;2022-09-12T08:31:16;99235.53;;;29.71;33.89
65175;BME280;51761;42.126;24.752;2022-09-12T08:33:42;99229.19;;;29.73;32.87
65175;BME280;51761;42.126;24.752;2022-09-12T08:36:18;99227.41;;;30.11;33.18
65175;BME280;51761;42.126;24.752;2022-09-12T08:38:45;99199.50;;;29.78;32.50
65175;BME280;51761;42.126;24.752;2022-09-12T08:52:10;99217.56;;;30.06;32.96
65175;BME280;51761;42.126;24.752;2022-09-12T08:54:38;99219.16;;;29.66;34.59
65175;BME280;51761;42.126;24.752;2022-09-12T08:57:05;99199.03;;;29.94;33.49
65175;BME280;51761;42.126;24.752;2022-09-12T08:59:40;99199.66;;;30.28;32.52
65175;BME280;51761;42.126;24.752;2022-09-12T09:02:21;99204.19;;;30.16;32.00
65175;BME280;51761;42.126;24.752;2022-09-12T09:16:21;99173.19;;;30.88;31.72
65175;BME280;51761;42.126;24.752;2022-09-12T09:19:29;99202.56;;;30.71;31.72
65175;BME280;51761;42.126;24.752;2022-09-12T09:21:59;99207.78;;;30.09;31.97
65175;BME280;51761;42.126;24.752;2022-09-12T09:24:33;99166.72;;;29.88;32.62
65175;BME280;51761;42.126;24.752;2022-09-12T09:27:08;99178.28;;;29.68;33.04
65175;BME280;51761;42.126;24.752;2022-09-12T09:29:44;99187.34;;;29.72;32.81
65175;BME280;51761;42.126;24.752;2022-09-12T09:32:26;99190.47;;;30.37;32.21
65175;BME280;51761;42.126;24.752;2022-09-12T09:38:24;99190.47;;;30.73;32.57
65175;BME280;51761;42.126;24.752;2022-09-12T09:43:36;99176.19;;;30.60;32.28
65175;BME280;51761;42.126;24.752;2022-09-12T09:46:02;99164.69;;;30.24;32.88
65175;BME280;51761;42.126;24.752;2022-09-12T09:48:31;99186.78;;;30.29;31.92
65175;BME280;51761;42.126;24.752;2022-09-12T09:51:01;99181.97;;;30.67;31.17
65175;BME280;51761;42.126;24.752;2022-09-12T09:53:37;99175.41;;;30.59;32.43
65175;BME280;51761;42.126;24.752;2022-09-12T09:56:33;99173.00;;;30.78;31.21
65175;BME280;51761;42.126;24.752;2022-09-12T10:01:59;99163.41;;;30.05;31.10
65175;BME280;51761;42.126;24.752;2022-09-12T10:04:33;99174.47;;;30.29;31.81
65175;BME280;51761;42.126;24.752;2022-09-12T10:07:01;99185.53;;;30.53;31.73
65175;BME280;51761;42.126;24.752;2022-09-12T10:09:32;99158.75;;;30.73;31.59
65175;BME280;51761;42.126;24.752;2022-09-12T10:11:59;99170.13;;;30.78;31.08
65175;BME280;51761;42.126;24.752;2022-09-12T10:14:38;99173.81;;;30.94;31.76
65175;BME280;51761;42.126;24.752;2022-09-12T10:17:38;99181.56;;;31.21;30.68
65175;BME280;51761;42.126;24.752;2022-09-12T10:20:04;99168.69;;;31.22;30.99
65175;BME280;51761;42.126;24.752;2022-09-12T10:22:30;99146.84;;;30.84;30.96
65175;BME280;51761;42.126;24.752;2022-09-12T10:24:58;99097.31;;;30.35;30.65
65175;BME280;51761;42.126;24.752;2022-09-12T10:27:27;99158.56;;;30.35;31.29
65175;BME280;51761;42.126;24.752;2022-09-12T10:30:16;99175.47;;;30.74;30.96
65175;BME280;51761;42.126;24.752;2022-09-12T10:32:45;99168.69;;;30.57;30.78
65175;BME280;51761;42.126;24.752;2022-09-12T10:35:19;99163.59;;;30.85;30.58
65175;BME280;51761;42.126;24.752;2022-09-12T10:37:56;99135.25;;;30.61;30.66
65175;BME280;51761;42.126;24.752;2022-09-12T10:40:24;99166.50;;;30.93;30.10
65175;BME280;51761;42.126;24.752;2022-09-12T10:42:52;99158.22;;;30.97;30.53
65175;BME280;51761;42.126;24.752;2022-09-12T10:45:29;99126.44;;;30.67;31.09
65175;BME280;51761;42.126;24.752;2022-09-12T10:47:58;99159.69;;;30.68;31.80
65175;BME280;51761;42.126;24.752;2022-09-12T10:50:29;99158.84;;;30.52;30.97
65175;BME280;51761;42.126;24.752;2022-09-12T10:53:25;99151.69;;;30.46;30.91
65175;BME280;51761;42.126;24.752;2022-09-12T11:12:46;99154.00;;;30.98;29.84
65175;BME280;51761;42.126;24.752;2022-09-12T11:18:26;99143.50;;;31.22;28.54
65175;BME280;51761;42.126;24.752;2022-09-12T11:34:36;99152.00;;;29.23;33.17
65175;BME280;51761;42.126;24.752;2022-09-12T11:39:39;99134.44;;;29.34;33.06
65175;BME280;51761;42.126;24.752;2022-09-12T11:42:15;99102.03;;;29.54;32.83
65175;BME280;51761;42.126;24.752;2022-09-12T11:44:45;99133.03;;;29.48;32.75
65175;BME280;51761;42.126;24.752;2022-09-12T11:47:13;99140.88;;;29.96;31.97
65175;BME280;51761;42.126;24.752;2022-09-12T11:49:47;99139.91;;;29.65;32.07
65175;BME280;51761;42.126;24.752;2022-09-12T11:52:25;99112.41;;;29.57;32.60
65175;BME280;51761;42.126;24.752;2022-09-12T11:57:32;99135.41;;;28.75;34.17
65175;BME280;51761;42.126;24.752;2022-09-12T12:03:41;99134.28;;;29.88;32.58
65175;BME280;51761;42.126;24.752;2022-09-12T12:08:47;99127.97;;;29.41;33.59
65175;BME280;51761;42.126;24.752;2022-09-12T12:11:25;99086.84;;;28.85;33.61
65175;BME280;51761;42.126;24.752;2022-09-12T12:13:56;99112.59;;;29.11;32.70
65175;BME280;51761;42.126;24.752;2022-09-12T12:16:32;99081.22;;;29.00;32.94
65175;BME280;51761;42.126;24.752;2022-09-12T12:19:32;99105.53;;;29.60;32.09
65175;BME280;51761;42.126;24.752;2022-09-12T12:22:17;99100.34;;;29.94;32.79
65175;BME280;51761;42.126;24.752;2022-09-12T12:36:00;99081.94;;;27.79;36.29
65175;BME280;51761;42.126;24.752;2022-09-12T12:43:42;99105.00;;;28.00;35.60
65175;BME280;51761;42.126;24.752;2022-09-12T12:46:16;99078.38;;;27.61;34.10
65175;BME280;51761;42.126;24.752;2022-09-12T12:48:45;99088.66;;;27.43;34.66
65175;BME280;51761;42.126;24.752;2022-09-12T12:53:49;99097.56;;;27.27;35.21
65175;BME280;51761;42.126;24.752;2022-09-12T12:56:38;99102.41;;;27.32;35.40
65175;BME280;51761;42.126;24.752;2022-09-12T12:59:15;99101.34;;;27.03;35.57
65175;BME280;51761;42.126;24.752;2022-09-12T13:01:52;99101.63;;;26.87;36.43
65175;BME280;51761;42.126;24.752;2022-09-12T13:04:22;99091.22;;;26.71;37.59
65175;BME280;51761;42.126;24.752;2022-09-12T13:07:04;99106.56;;;26.55;37.43
65175;BME280;51761;42.126;24.752;2022-09-12T13:09:35;99104.84;;;26.46;38.18
65175;BME280;51761;42.126;24.752;2022-09-12T13:12:18;99081.25;;;26.40;37.50
65175;BME280;51761;42.126;24.752;2022-09-12T13:22:39;99089.09;;;26.40;38.63
65175;BME280;51761;42.126;24.752;2022-09-12T13:25:31;99097.75;;;26.53;38.25
65175;BME280;51761;42.126;24.752;2022-09-12T13:30:23;99091.22;;;26.71;37.38
65175;BME280;51761;42.126;24.752;2022-09-12T13:32:48;99088.06;;;26.56;38.69
65175;BME280;51761;42.126;24.752;2022-09-12T13:35:37;99089.84;;;26.59;39.36
65175;BME280;51761;42.126;24.752;2022-09-12T13:38:31;99092.19;;;26.60;38.93
65175;BME280;51761;42.126;24.752;2022-09-12T13:41:17;99083.56;;;26.92;36.98
65175;BME280;51761;42.126;24.752;2022-09-12T13:43:46;99089.75;;;27.53;36.84
65175;BME280;51761;42.126;24.752;2022-09-12T13:46:15;99088.78;;;27.89;36.88
65175;BME280;51761;42.126;24.752;2022-09-12T13:48:42;99063.16;;;27.91;34.86
65175;BME280;51761;42.126;24.752;2022-09-12T13:51:20;99069.78;;;27.86;36.51
65175;BME280;51761;42.126;24.752;2022-09-12T13:53:47;99097.78;;;28.06;34.79
65175;BME280;51761;42.126;24.752;2022-09-12T13:56:17;99094.66;;;28.30;35.67
65175;BME280;51761;42.126;24.752;2022-09-12T13:58:55;99092.94;;;28.14;34.47
65175;BME280;51761;42.126;24.752;2022-09-12T14:01:37;99095.69;;;28.07;35.81
65175;BME280;51761;42.126;24.752;2022-09-12T14:04:32;99107.09;;;27.86;35.48
65175;BME280;51761;42.126;24.752;2022-09-12T14:07:23;99068.81;;;27.01;36.82
65175;BME280;51761;42.126;24.752;2022-09-12T14:10:14;99112.69;;;26.96;37.84
65175;BME280;51761;42.126;24.752;2022-09-12T14:12:41;99094.84;;;26.71;37.48
65175;BME280;51761;42.126;24.752;2022-09-12T14:15:20;99097.56;;;26.64;36.82
65175;BME280;51761;42.126;24.752;2022-09-12T14:18:02;99104.50;;;26.55;36.86
65175;BME280;51761;42.126;24.752;2022-09-12T14:20:30;99071.97;;;26.34;38.30
65175;BME280;51761;42.126;24.752;2022-09-12T14:23:26;99104.31;;;26.66;37.33
65175;BME280;51761;42.126;24.752;2022-09-12T14:25:53;99095.81;;;26.42;37.09
65175;BME280;51761;42.126;24.752;2022-09-12T14:28:20;99074.75;;;25.85;37.50
65175;BME280;51761;42.126;24.752;2022-09-12T14:33:51;99106.88;;;25.72;39.19
65175;BME280;51761;42.126;24.752;2022-09-12T14:38:49;99090.47;;;25.54;39.08
65175;BME280;51761;42.126;24.752;2022-09-12T14:41:22;99116.53;;;25.69;38.90
65175;BME280;51761;42.126;24.752;2022-09-12T14:43:52;99118.56;;;25.50;38.97
65175;BME280;51761;42.126;24.752;2022-09-12T14:46:38;99124.59;;;25.71;38.86
65175;BME280;51761;42.126;24.752;2022-09-12T14:49:20;99120.03;;;25.81;38.46
65175;BME280;51761;42.126;24.752;2022-09-12T14:56:59;99120.78;;;25.87;39.16
65175;BME280;51761;42.126;24.752;2022-09-12T14:59:28;99131.69;;;25.88;38.31
65175;BME280;51761;42.126;24.752;2022-09-12T15:04:43;99124.13;;;25.67;39.68
65175;BME280;51761;42.126;24.752;2022-09-12T15:09:39;99119.59;;;25.53;42.65
65175;BME280;51761;42.126;24.752;2022-09-12T15:12:05;99106.91;;;25.48;39.92
65175;BME280;51761;42.126;24.752;2022-09-12T15:14:30;99133.38;;;25.54;40.33
65175;BME280;51761;42.126;24.752;2022-09-12T15:16:56;99105.91;;;25.16;40.94
65175;BME280;51761;42.126;24.752;2022-09-12T15:19:21;99138.41;;;25.19;40.68
65175;BME280;51761;42.126;24.752;2022-09-12T15:21:47;99129.47;;;24.98;41.74
65175;BME280;51761;42.126;24.752;2022-09-12T15:24:12;99113.81;;;24.75;40.58
65175;BME280;51761;42.126;24.752;2022-09-12T15:29:49;99142.06;;;24.79;41.60
65175;BME280;51761;42.126;24.752;2022-09-12T15:32:25;99128.69;;;24.68;41.14
65175;BME280;51761;42.126;24.752;2022-09-12T15:34:52;99131.59;;;24.57;41.54
65175;BME280;51761;42.126;24.752;2022-09-12T15:37:21;99147.16;;;24.62;42.62
65175;BME280;51761;42.126;24.752;2022-09-12T15:39:48;99136.56;;;24.57;42.32
65175;BME280;51761;42.126;24.752;2022-09-12T15:42:15;99092.63;;;24.25;42.58
65175;BME280;51761;42.126;24.752;2022-09-12T15:44:41;99133.22;;;24.47;42.58
65175;BME280;51761;42.126;24.752;2022-09-12T15:47:11;99141.28;;;24.43;42.54
65175;BME280;51761;42.126;24.752;2022-09-12T15:52:59;99120.19;;;24.12;42.34
65175;BME280;51761;42.126;24.752;2022-09-12T15:55:28;99142.47;;;24.19;42.22
65175;BME280;51761;42.126;24.752;2022-09-12T15:57:54;99113.53;;;23.98;43.20
65175;BME280;51761;42.126;24.752;2022-09-12T16:00:20;99140.41;;;24.14;43.02